Home PIREPS Pireps

Flight BEL3157

  • Submitted By: Tran Tri Nam
  • Departure Airport: Bruxelles National (EBBR)
  • Arrival Airport: Malpensa International Airport (LIMC)
  • Aircraft: BAE AVRO RJ1 (OO-DWA)
  • Flight Time: 01.24
  • Date Submitted: 11/01/2017
  • Status: Accepted
Flight Details
Gross Revenue:
(82 load / € 90.00 per unit
€ 7,380.00
Fuel Cost:
(2795 fuel used @ 5.1 / unit)
€ 14,254.50

Additional Log Information:

View Log

Aircraft Used in flight is QWSim Avro RJ100 - Brussels Airlines - Config: S
15:13 Brakes are On
15:20 Brakes are Released
15:23 Brakes are On
15:25 Brakes are Released
15:28 Brakes are On
15:29 Brakes are Released
15:32 You Took off @ 143 Knots and Flaps at Position 1
Departure Weather
EBBR 111420Z 30015G26KT 9999 FEW025 09/03 Q1007 NOSIGrn
15:32 Landing Gear Up @ 152 Knots and 260 Feet
16:09 Stalling
16:09 Recovered from Stall
16:09 Stalling
16:09 Overspeed
16:09 Recovered from Stall
16:09 Recovered from Overspeed
16:09 Overspeed
16:09 Recovered from Overspeed
16:09 Overspeed
16:09 Recovered from Overspeed
16:09 Stalling
16:09 Recovered from Stall
16:09 Overspeed
16:09 Recovered from Overspeed
16:32 Landing Gear Down @ 149 Knots and 2380 Feet
16:35 You Landed @ 114 Knots and with -250 Vertical Speed
Arrival Weather
LIMC 111520Z 23004KT 200V260 9000 BKN030 M01/M06 Q1018 NOSIGrn
16:35 Paused
16:36 Unpaused
16:36 Paused
16:40 Unpaused
16:40 Brakes are On
16:43 Brussels Bel-Track1.0.1.2

Comments

Commenter Comment
Tran Tri Nam My first fly
Tran Tri Nam My first fly

Route Map

Corporate About Us Our Team Vacancies Information Fleet Route Network Rules and Regulations Operations Flight Schedules Event Center Tours Partners IVAO Vatsim Acars dev FSCB

fb Users Online Belgium Glenn Sonck,
1 Pilot(s) and 131 Guest(s) Online
CMS by phpVMS - Design by Crazycreatives.com - Copyright © 2018 - Brussels Airlines Virtual